Butte, MT

6:41 AM MDT on August 23, 2014 (GMT -0600)
BTL/LAO | Change Station
CLOSE
Current Station
Personal Weather Station
Location: Butte, MT
Elevation: 5458 ft
Nearby Weather Stations

Elev 5458 ft 46.00 °N, 112.55 °W | Updated 48 seconds ago

Light Rain
Light Rain
45.6 °F
Feels Like 41 °F
N
9.0
Wind Variable Wind from West
Gusts 9.0 mph

Today
High -- | Low -- °F
--% Chance of Precip.
Yesterday
High -- | Low -- °F
Precip. -- in
6:39 AM 8:24 PM
Waning Crescent, 4% visible
Pressure 30.02 in
Visibility 10.0 miles
Clouds Mostly Cloudy 2200 ft
Overcast 3900 ft
Windchill 41 °F
Dew Point 44 °F
Humidity 94%
Rainfall 0.13 in
Snow Depth 1 in
UV 0 out of 12
Pollen .90 out of 12
Air Quality Not available.
Flu Activity Not available.
METAR KBTM 231153Z AUTO 31011KT 10SM -RA BKN022 OVC039 07/06 A3009 RMK AO2 RAE07B30 SLP165 P0000 60009 70042 T00720056 10100 20072 58001

More Conditions Fewer Conditions

Pressure 30.02 in
Visibility 10.0 miles
Clouds Mostly Cloudy 2200 ft
Overcast 3900 ft
Windchill 41 °F
Dew Point 44 °F
Humidity 94%
Rainfall 0.13 in
Snow Depth 1 in
UV 0 out of 12
Pollen .90 out of 12
Air Quality Not available.
Flu Activity Not available.
METAR KBTM 231153Z AUTO 31011KT 10SM -RA BKN022 OVC039 07/06 A3009 RMK AO2 RAE07B30 SLP165 P0000 60009 70042 T00720056 10100 20072 58001

More Conditions Fewer Conditions

10-Day Weather Forecast

Almanac

Astronomy

Aug. 23, 2014 Rise Set
Actual Time 6:39 AM MDT 8:24 PM MDT
Civil Twilight 6:08 AM MDT 8:56 PM MDT
Nautical Twilight 5:29 AM MDT 9:34 PM MDT
Astronomical Twilight 4:47 AM MDT 10:16 PM MDT
Moon 4:57 AM MDT 7:12 PM MDT
Length of Visible Light 14h 48m
Length of Day
13h 44m
Tomorrow will be 3m 1s shorter.
Waning Crescent, 4% of the Moon is Illuminated
Today
Waning Crescent
Aug 25
New
Sep 2
First Quarter
Sep 8
Full
Sep 15
Last Quarter

Today's Extremes

State Highs State Lows

Community

WunderPhotos

Upload Photos

1,746,435 photos uploaded!

WunderBlogs® & News

By Dr. Jeff Masters
Director of Meteorology, Weather Underground
By Kari Strenfel
Meteorologist, Weather Underground
By Christopher C. Burt
Weather Historian, Weather Underground
August 23, 2014
August 23, 2014
August 23, 2014

Nearby

Snow Depth

Station Depth Elevation
Basin Creek 1 in 7180 ft
Brackett Creek 0 in 7320 ft
Barker Lakes 0 in 8250 ft
Rocker Peak 0 in 8000 ft
Frohner Meadow 0 in 6480 ft

Earthquake Activity

City Distance Mag. Time & Date
No recent earthquake activity has been reported nearby.
Minimum magnitude displayed is 2.5.

Coastal Water Temperatures

Place Temperature
No Stations Reporting

Nearby Weather Stations